Time;durP1;ratioP1;P1;durP2;ratioP2;P2;SDS_P1;SDS_P2;PMS_P1;PMS_P2;Temp;Humidity;BMP_temperature;BMP_pressure;BME280_temperature;BME280_humidity;BME280_pressure;Samples;Min_cycle;Max_cycle;Signal;HPM_P1;HPM_P2
2022/08/14 00:01:13;;;;;;;0.20;0.20;;;;;;;-148.56;100.00;61375.16;4929807;28;20041;-30
2022/08/14 00:03:38;;;;;;;0.20;0.20;;;;;;;-148.56;100.00;61375.16;4922867;28;20037;-28
2022/08/14 00:06:04;;;;;;;0.28;0.28;;;;;;;-148.56;100.00;61375.16;4918481;28;20168;-30
2022/08/14 00:08:29;;;;;;;0.50;0.32;;;;;;;-148.56;100.00;61375.16;4920712;28;20132;-30
2022/08/14 00:10:55;;;;;;;0.30;0.30;;;;;;;-148.56;100.00;61375.16;4927851;28;20038;-29
2022/08/14 00:13:22;;;;;;;0.30;0.30;;;;;;;-148.56;100.00;61375.16;4919294;28;20460;-31
2022/08/14 00:15:48;;;;;;;0.40;0.40;;;;;;;-148.56;100.00;61375.16;4924089;28;20591;-31
2022/08/14 00:18:19;;;;;;;0.10;0.10;;;;;;;-148.56;100.00;61375.16;4922346;28;20643;-32
2022/08/14 00:20:44;;;;;;;0.30;0.30;;;;;;;-148.56;100.00;61375.16;4928677;28;20027;-32
2022/08/14 00:23:11;;;;;;;0.20;0.20;;;;;;;-148.56;100.00;61375.16;4925783;28;20546;-36
2022/08/14 00:25:37;;;;;;;0.30;0.30;;;;;;;-148.56;100.00;61375.16;4920198;28;20632;-31
2022/08/14 00:28:03;;;;;;;0.30;0.25;;;;;;;-148.56;100.00;61375.16;4927939;28;20027;-28
2022/08/14 00:30:28;;;;;;;0.30;0.30;;;;;;;-148.56;100.00;61375.16;4924046;28;20030;-31
2022/08/14 00:32:53;;;;;;;0.20;0.20;;;;;;;-148.56;100.00;61375.16;4923113;28;20530;-31
2022/08/14 00:35:19;;;;;;;0.30;0.10;;;;;;;-148.56;100.00;61375.16;4919993;28;20108;-32
2022/08/14 00:37:45;;;;;;;0.40;0.30;;;;;;;-148.56;100.00;61375.16;4924895;28;20041;-25
2022/08/14 00:40:12;;;;;;;0.20;0.20;;;;;;;-148.56;100.00;61375.16;4935300;28;20038;-29
2022/08/14 00:42:38;;;;;;;0.55;0.30;;;;;;;-148.56;100.00;61375.16;4912342;28;20031;-30
2022/08/14 00:45:04;;;;;;;0.30;0.30;;;;;;;-148.56;100.00;61375.16;4927916;28;20717;-30
2022/08/14 00:47:30;;;;;;;0.10;0.10;;;;;;;-148.56;100.00;61375.16;4924192;28;20121;-30
2022/08/14 00:49:55;;;;;;;0.30;0.20;;;;;;;-148.56;100.00;61375.16;4922175;28;20057;-26
2022/08/14 00:52:21;;;;;;;0.20;0.20;;;;;;;-148.56;100.00;61375.16;4918373;28;20913;-31
2022/08/14 00:54:53;;;;;;;0.25;0.25;;;;;;;-148.56;100.00;61375.16;4932333;28;20037;-28
2022/08/14 00:57:21;;;;;;;;;;;;;;;-148.56;100.00;61375.16;4916189;28;20030;-30
2022/08/14 00:59:47;;;;;;;0.20;0.20;;;;;;;-148.56;100.00;61375.16;4922419;28;19929;-32
2022/08/14 01:02:14;;;;;;;0.22;0.22;;;;;;;-148.56;100.00;61375.16;4920300;28;20022;-26
2022/08/14 01:04:39;;;;;;;0.15;0.15;;;;;;;-148.56;100.00;61375.16;4921974;28;20030;-28
2022/08/14 01:07:06;;;;;;;0.30;0.30;;;;;;;-148.56;100.00;61375.16;4932478;28;20034;-34
2022/08/14 01:09:32;;;;;;;0.20;0.20;;;;;;;-148.56;100.00;61375.16;4928977;28;20487;-34
2022/08/14 01:11:57;;;;;;;0.25;0.25;;;;;;;-148.56;100.00;61375.16;4917596;28;20050;-28
2022/08/14 01:14:22;;;;;;;0.20;0.20;;;;;;;-148.56;100.00;61375.16;4922707;28;20164;-31
2022/08/14 01:16:48;;;;;;;0.20;0.20;;;;;;;-148.56;100.00;61375.16;4929369;28;20363;-31
2022/08/14 01:21:57;;;;;;;0.30;0.30;;;;;;;-148.56;100.00;61375.16;4937801;28;20088;-34
2022/08/14 01:24:23;;;;;;;0.30;0.30;;;;;;;-148.56;100.00;61375.16;4939352;28;20804;-31
2022/08/14 01:26:48;;;;;;;0.20;0.20;;;;;;;-148.56;100.00;61375.16;4934971;28;20733;-28
2022/08/14 01:29:14;;;;;;;0.30;0.30;;;;;;;-148.56;100.00;61375.16;4923250;28;21396;-31
2022/08/14 01:31:48;;;;;;;0.32;0.30;;;;;;;-148.56;100.00;61375.16;4923993;28;20121;-29
2022/08/14 01:34:14;;;;;;;0.20;0.20;;;;;;;-148.56;100.00;61375.16;4927774;28;20030;-27
2022/08/14 01:36:40;;;;;;;0.35;0.30;;;;;;;-148.56;100.00;61375.16;4929373;28;20033;-29
2022/08/14 01:39:16;;;;;;;0.30;0.30;;;;;;;-148.56;100.00;61375.16;4922039;28;20605;-28
2022/08/14 01:41:42;;;;;;;0.30;0.30;;;;;;;-148.56;100.00;61375.16;4922798;28;20149;-31
2022/08/14 01:44:11;;;;;;;0.30;0.30;;;;;;;-148.56;100.00;61375.16;4925839;28;20034;-32
2022/08/14 01:46:38;;;;;;;0.30;0.30;;;;;;;-148.56;100.00;61375.16;4928867;28;20077;-26
2022/08/14 01:49:06;;;;;;;0.20;0.20;;;;;;;-148.56;100.00;61375.16;4926826;28;20178;-29
2022/08/14 01:51:32;;;;;;;0.30;0.30;;;;;;;-148.56;100.00;61375.16;4916937;28;20038;-33
2022/08/14 01:54:00;;;;;;;0.32;0.30;;;;;;;-148.56;100.00;61375.16;4931129;28;20037;-27
2022/08/14 01:56:37;;;;;;;0.35;0.30;;;;;;;-148.56;100.00;61375.16;4920890;28;20510;-28
2022/08/14 01:59:21;;;;;;;0.10;0.10;;;;;;;-148.56;100.00;61375.16;4924313;28;20196;-27
2022/08/14 02:01:51;;;;;;;0.28;0.28;;;;;;;-148.56;100.00;61375.16;4920830;28;20042;-30
2022/08/14 02:04:20;;;;;;;0.40;0.30;;;;;;;-148.56;100.00;61375.16;4925540;28;20715;-29
2022/08/14 02:06:47;;;;;;;0.20;0.20;;;;;;;-148.56;100.00;61375.16;4930058;28;20037;-29
2022/08/14 02:09:12;;;;;;;0.28;0.28;;;;;;;-148.56;100.00;61375.16;4939553;28;21272;-32
2022/08/14 02:11:38;;;;;;;0.30;0.20;;;;;;;-148.56;100.00;61375.16;4922793;28;20983;-30
2022/08/14 02:14:05;;;;;;;0.22;0.22;;;;;;;-148.56;100.00;61375.16;4931489;28;20227;-26
2022/08/14 02:16:35;;;;;;;0.30;0.20;;;;;;;-148.56;100.00;61375.16;4929462;28;20428;-29
2022/08/14 02:19:02;;;;;;;0.45;0.30;;;;;;;-148.56;100.00;61375.16;4918229;28;20030;-31
2022/08/14 02:21:31;;;;;;;0.30;0.30;;;;;;;-148.56;100.00;61375.16;4923991;28;20022;-32
2022/08/14 02:23:58;;;;;;;0.65;0.40;;;;;;;-148.56;100.00;61375.16;4931227;28;20030;-32
2022/08/14 02:26:28;;;;;;;0.20;0.20;;;;;;;-148.56;100.00;61375.16;4925714;28;20041;-30
2022/08/14 02:29:06;;;;;;;0.20;0.20;;;;;;;-148.56;100.00;61375.16;4915595;28;20116;-30
2022/08/14 02:31:33;;;;;;;0.20;0.20;;;;;;;-148.56;100.00;61375.16;4934589;28;20395;-28
2022/08/14 02:33:59;;;;;;;0.28;0.28;;;;;;;-148.56;100.00;61375.16;4928131;28;20034;-29
2022/08/14 02:36:25;;;;;;;0.35;0.30;;;;;;;-148.56;100.00;61375.16;4919078;28;20404;-31
2022/08/14 02:38:51;;;;;;;0.15;0.15;;;;;;;-148.56;100.00;61375.16;4934048;28;20121;-30
2022/08/14 02:41:16;;;;;;;0.30;0.30;;;;;;;-148.56;100.00;61375.16;4935544;28;20060;-28
2022/08/14 02:43:42;;;;;;;0.20;0.20;;;;;;;-148.56;100.00;61375.16;4924448;28;22449;-31
2022/08/14 02:46:09;;;;;;;0.30;0.30;;;;;;;-148.56;100.00;61375.16;4927313;28;20125;-27
2022/08/14 02:48:38;;;;;;;0.20;0.20;;;;;;;-148.56;100.00;61375.16;4919693;28;20033;-27
2022/08/14 02:51:06;;;;;;;0.20;0.20;;;;;;;-148.56;100.00;61375.16;4925871;28;20061;-27
2022/08/14 02:53:32;;;;;;;0.22;0.22;;;;;;;-148.56;100.00;61375.16;4926577;28;20149;-28
2022/08/14 02:55:58;;;;;;;0.20;0.20;;;;;;;-148.56;100.00;61375.16;4923373;28;21212;-31
2022/08/14 02:58:23;;;;;;;0.20;0.20;;;;;;;-148.56;100.00;61375.16;4926148;28;20120;-30
2022/08/14 03:00:50;;;;;;;0.10;0.10;;;;;;;-148.56;100.00;61375.16;4923308;28;20022;-28
2022/08/14 03:03:16;;;;;;;0.20;0.20;;;;;;;-148.56;100.00;61375.16;4926513;28;20038;-26
2022/08/14 03:05:42;;;;;;;0.22;0.20;;;;;;;-148.56;100.00;61375.16;4926017;28;20438;-26
2022/08/14 03:08:11;;;;;;;0.20;0.20;;;;;;;-148.56;100.00;61375.16;4918166;28;20030;-27
2022/08/14 03:10:37;;;;;;;0.30;0.20;;;;;;;-148.56;100.00;61375.16;4925446;28;20033;-31
2022/08/14 03:13:03;;;;;;;0.30;0.30;;;;;;;-148.56;100.00;61375.16;4930880;28;20038;-32
2022/08/14 03:15:31;;;;;;;0.20;0.20;;;;;;;-148.56;100.00;61375.16;4938012;28;20030;-30
2022/08/14 03:17:56;;;;;;;0.20;0.20;;;;;;;-148.56;100.00;61375.16;4927377;28;20141;-32
2022/08/14 03:20:21;;;;;;;0.30;0.30;;;;;;;-148.56;100.00;61375.16;4925429;28;20124;-31
2022/08/14 03:22:47;;;;;;;0.20;0.20;;;;;;;-148.56;100.00;61375.16;4927960;28;20022;-29
2022/08/14 03:25:12;;;;;;;0.55;0.30;;;;;;;-148.56;100.00;61375.16;4921722;28;20102;-30
2022/08/14 03:27:38;;;;;;;0.20;0.20;;;;;;;-148.56;100.00;61375.16;4927583;28;20557;-26
2022/08/14 03:30:03;;;;;;;0.20;0.20;;;;;;;-148.56;100.00;61375.16;4923829;28;20033;-29
2022/08/14 03:32:32;;;;;;;0.20;0.20;;;;;;;-148.56;100.00;61375.16;4928134;28;20033;-30
2022/08/14 03:34:58;;;;;;;0.30;0.30;;;;;;;-148.56;100.00;61375.16;4921045;28;20034;-30
2022/08/14 03:37:25;;;;;;;0.20;0.20;;;;;;;-148.56;100.00;61375.16;4913459;28;21283;-29
2022/08/14 03:39:51;;;;;;;0.20;0.20;;;;;;;-148.56;100.00;61375.16;4919437;28;20033;-28
2022/08/14 03:42:17;;;;;;;0.13;0.13;;;;;;;-148.56;100.00;61375.16;4917100;28;20907;-27
2022/08/14 03:44:44;;;;;;;0.30;0.30;;;;;;;-148.56;100.00;61375.16;4921321;28;20065;-32
2022/08/14 03:47:10;;;;;;;0.30;0.30;;;;;;;-148.56;100.00;61375.16;4923598;28;20022;-32
2022/08/14 03:49:36;;;;;;;0.20;0.20;;;;;;;-148.56;100.00;61375.16;4924832;28;20289;-31
2022/08/14 03:52:03;;;;;;;0.10;0.10;;;;;;;-148.56;100.00;61375.16;4933457;28;20074;-30
2022/08/14 03:54:29;;;;;;;0.20;0.20;;;;;;;-148.56;100.00;61375.16;4926821;28;20058;-29
2022/08/14 03:56:59;;;;;;;0.20;0.20;;;;;;;-148.56;100.00;61375.16;4921827;28;20044;-29
2022/08/14 03:59:24;;;;;;;0.10;0.10;;;;;;;-148.56;100.00;61375.16;4918739;28;20204;-30
2022/08/14 04:01:51;;;;;;;0.20;0.20;;;;;;;-148.56;100.00;61375.16;4919713;28;20904;-30
2022/08/14 04:04:16;;;;;;;0.28;0.28;;;;;;;-148.56;100.00;61375.16;4933037;28;20037;-31
2022/08/14 04:06:42;;;;;;;0.20;0.20;;;;;;;-148.56;100.00;61375.16;4924872;28;20575;-30
2022/08/14 04:09:07;;;;;;;0.20;0.20;;;;;;;-148.56;100.00;61375.16;4927069;28;20038;-29
2022/08/14 04:11:34;;;;;;;0.22;0.20;;;;;;;-148.56;100.00;61375.16;4920525;28;20019;-33
2022/08/14 04:14:00;;;;;;;0.30;0.30;;;;;;;-148.56;100.00;61375.16;4923935;28;20713;-30
2022/08/14 04:16:25;;;;;;;0.20;0.20;;;;;;;-148.56;100.00;61375.16;4921333;28;20042;-30
2022/08/14 04:18:55;;;;;;;0.25;0.25;;;;;;;-148.56;100.00;61375.16;4920414;28;20037;-31
2022/08/14 04:21:25;;;;;;;0.40;0.40;;;;;;;-148.56;100.00;61375.16;4921249;28;20140;-29
2022/08/14 04:23:51;;;;;;;0.20;0.20;;;;;;;-148.56;100.00;61375.16;4929128;28;20173;-30
2022/08/14 04:26:20;;;;;;;0.20;0.20;;;;;;;-148.56;100.00;61375.16;4926955;28;21075;-27
2022/08/14 04:28:46;;;;;;;0.10;0.10;;;;;;;-148.56;100.00;61375.16;4925648;28;20227;-31
2022/08/14 04:31:12;;;;;;;0.40;0.22;;;;;;;-148.56;100.00;61375.16;4929546;28;21055;-30
2022/08/14 04:33:37;;;;;;;1.13;0.20;;;;;;;-148.56;100.00;61375.16;4920738;28;20064;-32
2022/08/14 04:36:03;;;;;;;0.20;0.20;;;;;;;-148.56;100.00;61375.16;4924473;28;20034;-32
2022/08/14 04:43:56;;;;;;;0.20;0.20;;;;;;;-148.56;100.00;61375.16;4925836;28;20096;-30
2022/08/14 04:46:22;;;;;;;0.20;0.20;;;;;;;-148.56;100.00;61375.16;4929851;28;20090;-29
2022/08/14 04:48:48;;;;;;;0.20;0.20;;;;;;;-148.56;100.00;61375.16;4922670;28;20050;-31
2022/08/14 04:51:19;;;;;;;0.28;0.28;;;;;;;-148.56;100.00;61375.16;4933945;28;20030;-32
2022/08/14 04:53:46;;;;;;;0.20;0.20;;;;;;;-148.56;100.00;61375.16;4926669;28;20041;-27
2022/08/14 04:56:12;;;;;;;0.30;0.30;;;;;;;-148.56;100.00;61375.16;4932043;28;20038;-31
2022/08/14 04:58:38;;;;;;;0.40;0.40;;;;;;;-148.56;100.00;61375.16;4923668;28;20617;-27
2022/08/14 05:01:06;;;;;;;0.30;0.30;;;;;;;-148.56;100.00;61375.16;4927876;28;20030;-29
2022/08/14 05:03:34;;;;;;;0.20;0.20;;;;;;;-148.56;100.00;61375.16;4928822;28;20034;-30
2022/08/14 05:06:01;;;;;;;0.20;0.20;;;;;;;-148.56;100.00;61375.16;4935059;28;20141;-30
2022/08/14 05:08:27;;;;;;;0.30;0.30;;;;;;;-148.56;100.00;61375.16;4927718;28;20454;-31
2022/08/14 05:10:54;;;;;;;0.38;0.30;;;;;;;-148.56;100.00;61375.16;4929268;28;20022;-29
2022/08/14 05:13:28;;;;;;;0.25;0.25;;;;;;;-148.56;100.00;61375.16;4929567;28;20043;-29
2022/08/14 05:15:54;;;;;;;0.20;0.20;;;;;;;-148.56;100.00;61375.16;4925052;28;20445;-32
2022/08/14 05:18:26;;;;;;;0.35;0.30;;;;;;;-148.56;100.00;61375.16;4932299;28;20034;-27
2022/08/14 05:20:53;;;;;;;0.20;0.20;;;;;;;-148.56;100.00;61375.16;4930617;28;20026;-30
2022/08/14 05:23:20;;;;;;;0.20;0.20;;;;;;;-148.56;100.00;61375.16;4924261;28;20037;-29
2022/08/14 05:25:50;;;;;;;0.20;0.20;;;;;;;-148.56;100.00;61375.16;4923721;28;20041;-29
2022/08/14 05:28:18;;;;;;;0.20;0.20;;;;;;;-148.56;100.00;61375.16;4923801;28;20287;-28
2022/08/14 05:30:47;;;;;;;0.40;0.30;;;;;;;-148.56;100.00;61375.16;4942615;28;20026;-28
2022/08/14 05:33:15;;;;;;;0.30;0.30;;;;;;;-148.56;100.00;61375.16;4921029;28;20979;-28
2022/08/14 05:35:41;;;;;;;0.20;0.20;;;;;;;-148.56;100.00;61375.16;4932032;28;20113;-32
2022/08/14 05:38:08;;;;;;;0.38;0.20;;;;;;;-148.56;100.00;61375.16;4934278;28;20053;-30
2022/08/14 05:40:34;;;;;;;0.20;0.20;;;;;;;-148.56;100.00;61375.16;4930696;28;20097;-25
2022/08/14 05:42:59;;;;;;;0.20;0.20;;;;;;;-148.56;100.00;61375.16;4920252;28;20277;-33
2022/08/14 05:45:25;;;;;;;0.20;0.20;;;;;;;-148.56;100.00;61375.16;4930801;28;20490;-32
2022/08/14 05:47:50;;;;;;;0.20;0.20;;;;;;;-148.56;100.00;61375.16;4923732;28;20049;-29
2022/08/14 05:50:16;;;;;;;0.20;0.20;;;;;;;-148.56;100.00;61375.16;4922506;28;20026;-25
2022/08/14 05:52:41;;;;;;;0.20;0.20;;;;;;;-148.56;100.00;61375.16;4922683;28;20070;-33
2022/08/14 05:55:07;;;;;;;0.20;0.20;;;;;;;-148.56;100.00;61375.16;4932472;28;20026;-30
2022/08/14 05:57:33;;;;;;;0.22;0.22;;;;;;;-148.56;100.00;61375.16;4924669;28;20034;-32
2022/08/14 05:59:58;;;;;;;0.30;0.30;;;;;;;-148.56;100.00;61375.16;4929898;28;20155;-28
2022/08/14 06:02:23;;;;;;;0.20;0.20;;;;;;;-148.56;100.00;61375.16;4922928;28;20088;-26
2022/08/14 06:04:49;;;;;;;0.20;0.20;;;;;;;-148.56;100.00;61375.16;4926486;28;22588;-33
2022/08/14 06:07:14;;;;;;;0.22;0.22;;;;;;;-148.56;100.00;61375.16;4929176;28;20034;-29
2022/08/14 06:09:40;;;;;;;0.20;0.20;;;;;;;-148.56;100.00;61375.16;4930904;28;20038;-26
2022/08/14 06:12:06;;;;;;;0.15;0.15;;;;;;;-148.56;100.00;61375.16;4932979;28;20041;-27
2022/08/14 06:14:32;;;;;;;0.30;0.30;;;;;;;-148.56;100.00;61375.16;4934306;28;20026;-30
2022/08/14 06:16:57;;;;;;;0.10;0.10;;;;;;;-148.56;100.00;61375.16;4925390;28;20041;-29
2022/08/14 06:19:23;;;;;;;0.13;0.13;;;;;;;-148.56;100.00;61375.16;4923189;28;20038;-32
2022/08/14 06:21:48;;;;;;;0.22;0.22;;;;;;;-148.56;100.00;61375.16;4925713;28;20049;-30
2022/08/14 06:24:14;;;;;;;0.20;0.20;;;;;;;-148.56;100.00;61375.16;4922770;28;22569;-30
2022/08/14 06:26:39;;;;;;;0.20;0.20;;;;;;;-148.56;100.00;61375.16;4929138;28;20038;-29
2022/08/14 06:29:04;;;;;;;0.22;0.22;;;;;;;-148.56;100.00;61375.16;4926922;28;20944;-32
2022/08/14 06:31:30;;;;;;;0.22;0.20;;;;;;;-148.56;100.00;61375.16;4926453;28;20206;-30
2022/08/14 06:33:55;;;;;;;0.35;0.20;;;;;;;-148.56;100.00;61375.16;4930196;28;20098;-28
2022/08/14 06:36:21;;;;;;;0.17;0.17;;;;;;;-148.56;100.00;61375.16;4925916;28;22108;-30
2022/08/14 06:38:46;;;;;;;0.20;0.20;;;;;;;-148.56;100.00;61375.16;4920611;28;20085;-33
2022/08/14 06:41:12;;;;;;;0.20;0.20;;;;;;;-148.56;100.00;61375.16;4927875;28;20909;-35
2022/08/14 06:43:37;;;;;;;0.43;0.30;;;;;;;-148.56;100.00;61375.16;4924821;28;20037;-30
2022/08/14 06:46:03;;;;;;;0.32;0.30;;;;;;;-148.56;100.00;61375.16;4923314;28;20816;-27
2022/08/14 06:48:28;;;;;;;0.52;0.40;;;;;;;-148.56;100.00;61375.16;4924285;28;20062;-27
2022/08/14 06:50:54;;;;;;;0.20;0.20;;;;;;;-148.56;100.00;61375.16;4925265;28;20045;-30
2022/08/14 06:53:20;;;;;;;0.30;0.30;;;;;;;-148.56;100.00;61375.16;4920809;28;20057;-29
2022/08/14 06:55:46;;;;;;;0.40;0.40;;;;;;;-148.56;100.00;61375.16;4933311;28;20145;-30
2022/08/14 06:58:15;;;;;;;0.10;0.10;;;;;;;-148.56;100.00;61375.16;4931896;28;20032;-30
2022/08/14 07:05:44;;;;;;;0.30;0.20;;;;;;;-148.56;100.00;61375.16;4926413;28;20093;-29
2022/08/14 07:06:12;;;;;;;0.20;0.20;;;;;;;-148.56;100.00;61375.16;4924640;28;20350;-30
2022/08/14 07:08:37;;;;;;;0.35;0.28;;;;;;;-148.56;100.00;61375.16;4919788;28;20217;-33
2022/08/14 07:11:03;;;;;;;0.20;0.20;;;;;;;-148.56;100.00;61375.16;4928840;28;20037;-27
2022/08/14 07:13:28;;;;;;;0.25;0.25;;;;;;;-148.56;100.00;61375.16;4926512;28;20022;-30
2022/08/14 07:15:54;;;;;;;0.20;0.20;;;;;;;-148.56;100.00;61375.16;4923786;28;20034;-30
2022/08/14 07:18:24;;;;;;;0.20;0.20;;;;;;;-148.56;100.00;61375.16;4920629;28;20077;-29
2022/08/14 07:20:50;;;;;;;0.20;0.20;;;;;;;-148.56;100.00;61375.16;4927342;28;20030;-30
2022/08/14 07:23:15;;;;;;;0.70;0.40;;;;;;;-148.56;100.00;61375.16;4922244;28;20050;-28
2022/08/14 07:25:41;;;;;;;0.20;0.20;;;;;;;-148.56;100.00;61375.16;4920373;28;20549;-31
2022/08/14 07:28:14;;;;;;;0.60;0.22;;;;;;;-148.56;100.00;61375.16;4924494;28;20409;-30
2022/08/14 07:30:43;;;;;;;0.43;0.40;;;;;;;-148.56;100.00;61375.16;4927592;28;20270;-29
2022/08/14 07:33:09;;;;;;;0.30;0.30;;;;;;;-148.56;100.00;61375.16;4931670;28;20108;-29
2022/08/14 07:35:34;;;;;;;0.40;0.40;;;;;;;-148.56;100.00;61375.16;4934237;28;20038;-28
2022/08/14 07:38:00;;;;;;;0.20;0.20;;;;;;;-148.56;100.00;61375.16;4931096;28;20030;-33
2022/08/14 07:40:25;;;;;;;0.10;0.10;;;;;;;-148.56;100.00;61375.16;4927586;28;20971;-27
2022/08/14 07:42:51;;;;;;;0.30;0.30;;;;;;;-148.56;100.00;61375.16;4920600;28;20031;-30
2022/08/14 07:45:17;;;;;;;0.15;0.15;;;;;;;-148.56;100.00;61375.16;4927035;28;20069;-30
2022/08/14 07:47:42;;;;;;;0.20;0.20;;;;;;;-148.56;100.00;61375.16;4927806;28;20042;-32
2022/08/14 07:50:17;;;;;;;0.30;0.30;;;;;;;-148.56;100.00;61375.16;4927232;28;20089;-29
2022/08/14 07:52:43;;;;;;;3.03;0.80;;;;;;;-148.56;100.00;61375.16;4928857;28;20037;-34
2022/08/14 07:55:10;;;;;;;2.22;1.10;;;;;;;-148.56;100.00;61375.16;4941664;28;20060;-31
2022/08/14 07:57:37;;;;;;;2.17;0.73;;;;;;;-148.56;100.00;61375.16;4927905;28;20822;-32
2022/08/14 08:00:09;;;;;;;2.05;0.32;;;;;;;-148.56;100.00;61375.16;4928032;28;20062;-29
2022/08/14 08:02:35;;;;;;;0.32;0.32;;;;;;;-148.56;100.00;61375.16;4928779;28;20034;-25
2022/08/14 08:05:00;;;;;;;0.40;0.40;;;;;;;-148.56;100.00;61375.16;4931923;28;20099;-32
2022/08/14 08:07:27;;;;;;;0.77;0.68;;;;;;;-148.56;100.00;61375.16;4923416;28;20053;-36
2022/08/14 08:09:54;;;;;;;0.50;0.50;;;;;;;-148.56;100.00;61375.16;4911606;28;20035;-32
2022/08/14 08:12:20;;;;;;;0.60;0.60;;;;;;;-148.56;100.00;61375.16;4922070;28;20042;-29
2022/08/14 08:14:47;;;;;;;0.82;0.63;;;;;;;-148.56;100.00;61375.16;4923775;28;20173;-30
2022/08/14 08:17:12;;;;;;;1.83;0.80;;;;;;;-148.56;100.00;61375.16;4919478;28;20034;-29
2022/08/14 08:19:38;;;;;;;0.73;0.60;;;;;;;-148.56;100.00;61375.16;4921393;28;20092;-28
2022/08/14 08:22:03;;;;;;;0.50;0.50;;;;;;;-148.56;100.00;61375.16;4928951;28;20034;-31
2022/08/14 08:24:29;;;;;;;1.95;0.50;;;;;;;-148.56;100.00;61375.16;4929712;28;20103;-32
2022/08/14 08:26:54;;;;;;;1.00;0.43;;;;;;;-148.56;100.00;61375.16;4933961;28;20172;-30
2022/08/14 08:29:21;;;;;;;0.50;0.50;;;;;;;-148.56;100.00;61375.16;4934593;28;20108;-31
2022/08/14 08:31:48;;;;;;;0.45;0.45;;;;;;;-148.56;100.00;61375.16;4922689;28;20030;-28
2022/08/14 08:34:14;;;;;;;0.40;0.40;;;;;;;-148.56;100.00;61375.16;4938495;28;20041;-30
2022/08/14 08:36:40;;;;;;;0.50;0.45;;;;;;;-148.56;100.00;61375.16;4931137;28;20026;-33
2022/08/14 08:39:06;;;;;;;2.40;0.63;;;;;;;-148.56;100.00;61375.16;4929397;28;20042;-29
2022/08/14 08:41:45;;;;;;;2.38;0.57;;;;;;;-148.56;100.00;61375.16;4933520;28;20069;-30
2022/08/14 08:44:11;;;;;;;0.50;0.40;;;;;;;-148.56;100.00;61375.16;4925975;28;20669;-28
2022/08/14 08:46:36;;;;;;;0.85;0.38;;;;;;;-148.56;100.00;61375.16;4926781;28;20244;-29
2022/08/14 08:49:02;;;;;;;1.00;0.30;;;;;;;-148.56;100.00;61375.16;4943700;28;20074;-32
2022/08/14 08:51:32;;;;;;;1.10;0.45;;;;;;;-148.56;100.00;61375.16;4938103;28;20125;-31
2022/08/14 08:54:11;;;;;;;0.93;0.50;;;;;;;-148.56;100.00;61375.16;4931594;28;20038;-29
2022/08/14 08:56:42;;;;;;;0.57;0.50;;;;;;;-148.56;100.00;61375.16;4930557;28;20034;-32
2022/08/14 08:59:21;;;;;;;0.40;0.40;;;;;;;-148.56;100.00;61375.16;4925363;28;20117;-33
2022/08/14 09:02:07;;;;;;;0.50;0.50;;;;;;;-148.56;100.00;61375.16;4927582;28;20188;-28
2022/08/14 09:04:38;;;;;;;0.40;0.40;;;;;;;-148.56;100.00;61375.16;4934365;28;20884;-34
2022/08/14 09:07:04;;;;;;;1.35;0.40;;;;;;;-148.56;100.00;61375.16;4927635;28;20053;-33
2022/08/14 09:09:30;;;;;;;0.25;0.25;;;;;;;-148.56;100.00;61375.16;4931049;28;20037;-29
2022/08/14 09:11:57;;;;;;;0.40;0.40;;;;;;;-148.56;100.00;61375.16;4927140;28;20030;-28
2022/08/14 09:14:28;;;;;;;1.05;0.57;;;;;;;-148.56;100.00;61375.16;4928660;28;20381;-29
2022/08/14 09:16:53;;;;;;;0.50;0.50;;;;;;;-148.56;100.00;61375.16;4927123;28;20031;-30
2022/08/14 09:19:20;;;;;;;1.23;0.60;;;;;;;-148.56;100.00;61375.16;4929545;28;20038;-28
2022/08/14 09:21:45;;;;;;;0.40;0.40;;;;;;;-148.56;100.00;61375.16;4929224;28;20113;-28
2022/08/14 09:24:11;;;;;;;0.30;0.30;;;;;;;-148.56;100.00;61375.16;4931717;28;20040;-30
2022/08/14 09:26:36;;;;;;;0.40;0.40;;;;;;;-148.56;100.00;61375.16;4935135;28;20499;-32
2022/08/14 09:29:03;;;;;;;0.50;0.50;;;;;;;-148.56;100.00;61375.16;4937588;28;20033;-28
2022/08/14 09:31:29;;;;;;;1.27;0.45;;;;;;;-148.56;100.00;61375.16;4928138;28;20748;-31
2022/08/14 09:34:05;;;;;;;0.60;0.47;;;;;;;-148.56;100.00;61375.16;4931686;28;20065;-31
2022/08/14 09:36:39;;;;;;;0.68;0.40;;;;;;;-148.56;100.00;61375.16;4942802;28;20041;-30
2022/08/14 09:39:32;;;;;;;0.55;0.40;;;;;;;-148.56;100.00;61375.16;4931540;28;20057;-32
2022/08/14 09:42:52;;;;;;;0.52;0.30;;;;;;;-148.56;100.00;61375.16;4927253;28;20499;-28
2022/08/14 09:45:21;;;;;;;0.47;0.47;;;;;;;-148.56;100.00;61375.16;4922882;28;20872;-31
2022/08/14 09:47:49;;;;;;;0.40;0.40;;;;;;;-148.56;100.00;61375.16;4924261;28;20290;-32
2022/08/14 09:50:31;;;;;;;0.50;0.50;;;;;;;-148.56;100.00;61375.16;4933314;28;20036;-28
2022/08/14 09:53:01;;;;;;;0.50;0.50;;;;;;;-148.56;100.00;61375.16;4923278;28;20034;-28
2022/08/14 09:55:32;;;;;;;0.40;0.40;;;;;;;-148.56;100.00;61375.16;4923527;28;20033;-33
2022/08/14 09:58:10;;;;;;;0.50;0.50;;;;;;;-148.56;100.00;61375.16;4928680;28;20182;-32
2022/08/14 10:00:50;;;;;;;0.40;0.40;;;;;;;-148.56;100.00;61375.16;4929624;28;20034;-30
2022/08/14 10:03:32;;;;;;;0.45;0.45;;;;;;;-148.56;100.00;61375.16;4943387;28;20781;-27
2022/08/14 10:06:08;;;;;;;0.20;0.20;;;;;;;-148.56;100.00;61375.16;4926860;28;20031;-28
2022/08/14 10:08:43;;;;;;;0.40;0.40;;;;;;;-148.56;100.00;61375.16;4930140;28;21253;-30
2022/08/14 10:11:18;;;;;;;0.50;0.50;;;;;;;-148.56;100.00;61375.16;4921348;28;20818;-30
2022/08/14 10:13:46;;;;;;;0.30;0.30;;;;;;;-148.56;100.00;61375.16;4929884;28;20509;-29
2022/08/14 10:16:12;;;;;;;0.40;0.40;;;;;;;-148.56;100.00;61375.16;4922145;28;20030;-30
2022/08/14 10:18:38;;;;;;;0.40;0.40;;;;;;;-148.56;100.00;61375.16;4931599;28;20042;-33
2022/08/14 10:21:05;;;;;;;0.50;0.50;;;;;;;-148.56;100.00;61375.16;4930222;28;20057;-32
2022/08/14 10:23:42;;;;;;;0.40;0.40;;;;;;;-148.56;100.00;61375.16;4924594;28;20041;-31
2022/08/14 10:26:07;;;;;;;0.80;0.50;;;;;;;-148.56;100.00;61375.16;4926891;28;20034;-31
2022/08/14 10:28:41;;;;;;;0.45;0.40;;;;;;;-148.56;100.00;61375.16;4934864;28;20053;-31
2022/08/14 10:31:16;;;;;;;0.43;0.30;;;;;;;-148.56;100.00;61375.16;4922717;28;20048;-28
2022/08/14 10:33:42;;;;;;;0.50;0.40;;;;;;;-148.56;100.00;61375.16;4934160;28;21113;-34
2022/08/14 10:36:08;;;;;;;0.63;0.47;;;;;;;-148.56;100.00;61375.16;4926044;28;20038;-31
2022/08/14 10:38:34;;;;;;;1.45;0.50;;;;;;;-148.56;100.00;61375.16;4922496;28;20030;-28
2022/08/14 10:41:11;;;;;;;0.35;0.35;;;;;;;-148.56;100.00;61375.16;4919838;28;20411;-31
2022/08/14 10:43:37;;;;;;;0.40;0.40;;;;;;;-148.56;100.00;61375.16;4935527;28;20187;-34
2022/08/14 10:46:13;;;;;;;0.80;0.30;;;;;;;-148.56;100.00;61375.16;4933189;28;20897;-34
2022/08/14 10:48:39;;;;;;;0.35;0.35;;;;;;;-148.56;100.00;61375.16;4924145;28;20033;-29
2022/08/14 10:51:04;;;;;;;0.45;0.40;;;;;;;-148.56;100.00;61375.16;4920677;28;20096;-31
2022/08/14 10:53:31;;;;;;;0.40;0.40;;;;;;;-148.56;100.00;61375.16;4925869;28;21750;-33
2022/08/14 10:56:02;;;;;;;0.40;0.40;;;;;;;-148.56;100.00;61375.16;4923199;28;20069;-28
2022/08/14 10:58:29;;;;;;;0.40;0.40;;;;;;;-148.56;100.00;61375.16;4919389;28;20133;-31
2022/08/14 11:00:56;;;;;;;0.50;0.50;;;;;;;-148.56;100.00;61375.16;4923100;28;20035;-28
2022/08/14 11:03:22;;;;;;;0.30;0.30;;;;;;;-148.56;100.00;61375.16;4943741;28;20406;-29
2022/08/14 11:05:49;;;;;;;0.40;0.40;;;;;;;-148.56;100.00;61375.16;4935798;28;20113;-28
2022/08/14 11:08:15;;;;;;;0.47;0.47;;;;;;;-148.56;100.00;61375.16;4932988;28;20549;-25
2022/08/14 11:10:49;;;;;;;1.05;0.40;;;;;;;-148.56;100.00;61375.16;4921804;28;20042;-32
2022/08/14 11:13:16;;;;;;;0.22;0.22;;;;;;;-148.56;100.00;61375.16;4919670;28;20034;-30
2022/08/14 11:15:41;;;;;;;0.32;0.32;;;;;;;-148.56;100.00;61375.16;4931754;28;20030;-32
2022/08/14 11:18:07;;;;;;;0.40;0.40;;;;;;;-148.56;100.00;61375.16;4925604;28;20068;-32
2022/08/14 11:20:32;;;;;;;0.60;0.40;;;;;;;-148.56;100.00;61375.16;4923740;28;20144;-31
2022/08/14 11:22:59;;;;;;;0.30;0.30;;;;;;;-148.56;100.00;61375.16;4922699;28;20069;-29